sensor_id;sensor_type;location;lat;lon;timestamp;P1;durP1;ratioP1;P2;durP2;ratioP2
25567;SDS011;13455;51.480;7.594;2023-05-10T00:00:37;8.17;;;5.80;;
25567;SDS011;13455;51.480;7.594;2023-05-10T00:03:03;8.03;;;5.73;;
25567;SDS011;13455;51.480;7.594;2023-05-10T00:05:29;7.13;;;4.70;;
25567;SDS011;13455;51.480;7.594;2023-05-10T00:07:55;5.95;;;3.70;;
25567;SDS011;13455;51.480;7.594;2023-05-10T00:10:21;4.93;;;3.00;;
25567;SDS011;13455;51.480;7.594;2023-05-10T00:12:47;5.30;;;3.10;;
25567;SDS011;13455;51.480;7.594;2023-05-10T00:15:12;4.93;;;3.40;;
25567;SDS011;13455;51.480;7.594;2023-05-10T00:17:38;5.53;;;3.10;;
25567;SDS011;13455;51.480;7.594;2023-05-10T00:20:04;4.60;;;2.33;;
25567;SDS011;13455;51.480;7.594;2023-05-10T00:22:30;3.60;;;2.20;;
25567;SDS011;13455;51.480;7.594;2023-05-10T00:24:56;3.42;;;2.20;;
25567;SDS011;13455;51.480;7.594;2023-05-10T00:27:22;3.05;;;1.80;;
25567;SDS011;13455;51.480;7.594;2023-05-10T00:29:48;3.00;;;1.67;;
25567;SDS011;13455;51.480;7.594;2023-05-10T00:32:14;1.73;;;1.50;;
25567;SDS011;13455;51.480;7.594;2023-05-10T00:34:39;2.60;;;1.55;;
25567;SDS011;13455;51.480;7.594;2023-05-10T00:37:05;4.10;;;1.58;;
25567;SDS011;13455;51.480;7.594;2023-05-10T00:39:31;2.10;;;1.70;;
25567;SDS011;13455;51.480;7.594;2023-05-10T00:41:56;2.33;;;2.00;;
25567;SDS011;13455;51.480;7.594;2023-05-10T00:44:22;3.00;;;1.90;;
25567;SDS011;13455;51.480;7.594;2023-05-10T00:46:48;2.80;;;1.87;;
25567;SDS011;13455;51.480;7.594;2023-05-10T00:49:14;3.40;;;2.00;;
25567;SDS011;13455;51.480;7.594;2023-05-10T00:51:41;2.83;;;2.15;;
25567;SDS011;13455;51.480;7.594;2023-05-10T00:54:08;3.78;;;2.20;;
25567;SDS011;13455;51.480;7.594;2023-05-10T00:56:36;4.27;;;2.73;;
25567;SDS011;13455;51.480;7.594;2023-05-10T00:59:02;3.63;;;2.92;;
25567;SDS011;13455;51.480;7.594;2023-05-10T01:01:28;4.18;;;3.20;;
25567;SDS011;13455;51.480;7.594;2023-05-10T01:03:54;5.22;;;3.33;;
25567;SDS011;13455;51.480;7.594;2023-05-10T01:06:20;4.65;;;3.15;;
25567;SDS011;13455;51.480;7.594;2023-05-10T01:08:46;6.47;;;3.58;;
25567;SDS011;13455;51.480;7.594;2023-05-10T01:11:12;5.50;;;3.58;;
25567;SDS011;13455;51.480;7.594;2023-05-10T01:13:38;5.07;;;3.80;;
25567;SDS011;13455;51.480;7.594;2023-05-10T01:16:07;4.53;;;3.80;;
25567;SDS011;13455;51.480;7.594;2023-05-10T01:18:33;4.88;;;3.70;;
25567;SDS011;13455;51.480;7.594;2023-05-10T01:21:48;5.15;;;3.90;;
25567;SDS011;13455;51.480;7.594;2023-05-10T01:32:35;6.20;;;4.50;;
25567;SDS011;13455;51.480;7.594;2023-05-10T01:35:37;7.15;;;4.75;;
25567;SDS011;13455;51.480;7.594;2023-05-10T01:43:11;6.78;;;5.28;;
25567;SDS011;13455;51.480;7.594;2023-05-10T01:45:55;7.10;;;5.95;;
25567;SDS011;13455;51.480;7.594;2023-05-10T01:48:25;7.60;;;6.20;;
25567;SDS011;13455;51.480;7.594;2023-05-10T01:50:53;8.15;;;6.05;;
25567;SDS011;13455;51.480;7.594;2023-05-10T01:53:21;7.72;;;6.63;;
25567;SDS011;13455;51.480;7.594;2023-05-10T01:55:49;8.95;;;6.88;;
25567;SDS011;13455;51.480;7.594;2023-05-10T01:58:19;8.65;;;6.65;;
25567;SDS011;13455;51.480;7.594;2023-05-10T02:00:47;8.57;;;6.32;;
25567;SDS011;13455;51.480;7.594;2023-05-10T02:03:16;8.60;;;6.20;;
25567;SDS011;13455;51.480;7.594;2023-05-10T02:05:45;8.18;;;6.40;;
25567;SDS011;13455;51.480;7.594;2023-05-10T02:08:13;7.90;;;6.60;;
25567;SDS011;13455;51.480;7.594;2023-05-10T02:10:39;9.70;;;6.60;;
25567;SDS011;13455;51.480;7.594;2023-05-10T02:13:05;8.03;;;6.87;;
25567;SDS011;13455;51.480;7.594;2023-05-10T02:15:32;6.78;;;6.00;;
25567;SDS011;13455;51.480;7.594;2023-05-10T02:17:58;8.80;;;6.43;;
25567;SDS011;13455;51.480;7.594;2023-05-10T02:20:25;8.07;;;6.40;;
25567;SDS011;13455;51.480;7.594;2023-05-10T02:22:52;8.52;;;6.82;;
25567;SDS011;13455;51.480;7.594;2023-05-10T02:25:19;8.18;;;6.43;;
25567;SDS011;13455;51.480;7.594;2023-05-10T02:27:46;8.45;;;6.00;;
25567;SDS011;13455;51.480;7.594;2023-05-10T02:30:13;8.13;;;5.70;;
25567;SDS011;13455;51.480;7.594;2023-05-10T02:32:39;9.30;;;6.32;;
25567;SDS011;13455;51.480;7.594;2023-05-10T02:35:06;7.53;;;5.93;;
25567;SDS011;13455;51.480;7.594;2023-05-10T02:37:35;7.35;;;6.20;;
25567;SDS011;13455;51.480;7.594;2023-05-10T02:40:02;9.40;;;6.28;;
25567;SDS011;13455;51.480;7.594;2023-05-10T02:42:32;8.85;;;6.28;;
25567;SDS011;13455;51.480;7.594;2023-05-10T02:44:59;7.85;;;5.90;;
25567;SDS011;13455;51.480;7.594;2023-05-10T02:47:30;7.47;;;5.80;;
25567;SDS011;13455;51.480;7.594;2023-05-10T02:49:57;8.20;;;5.80;;
25567;SDS011;13455;51.480;7.594;2023-05-10T02:52:27;5.55;;;4.63;;
25567;SDS011;13455;51.480;7.594;2023-05-10T02:54:58;6.35;;;5.10;;
25567;SDS011;13455;51.480;7.594;2023-05-10T02:57:28;6.38;;;4.57;;
25567;SDS011;13455;51.480;7.594;2023-05-10T02:59:59;7.67;;;4.80;;
25567;SDS011;13455;51.480;7.594;2023-05-10T03:02:26;6.30;;;4.07;;
25567;SDS011;13455;51.480;7.594;2023-05-10T03:04:55;4.95;;;3.80;;
25567;SDS011;13455;51.480;7.594;2023-05-10T03:07:21;5.85;;;3.70;;
25567;SDS011;13455;51.480;7.594;2023-05-10T03:09:47;4.20;;;3.23;;
25567;SDS011;13455;51.480;7.594;2023-05-10T03:20:51;4.43;;;2.95;;
25567;SDS011;13455;51.480;7.594;2023-05-10T03:23:26;4.88;;;3.10;;
25567;SDS011;13455;51.480;7.594;2023-05-10T03:25:54;3.78;;;3.13;;
25567;SDS011;13455;51.480;7.594;2023-05-10T03:28:21;4.75;;;3.28;;
25567;SDS011;13455;51.480;7.594;2023-05-10T03:30:49;4.38;;;3.20;;
25567;SDS011;13455;51.480;7.594;2023-05-10T03:33:18;4.40;;;3.17;;
25567;SDS011;13455;51.480;7.594;2023-05-10T03:35:44;4.40;;;3.33;;
25567;SDS011;13455;51.480;7.594;2023-05-10T03:38:11;5.25;;;3.20;;
25567;SDS011;13455;51.480;7.594;2023-05-10T03:40:37;4.88;;;3.50;;
25567;SDS011;13455;51.480;7.594;2023-05-10T03:43:02;6.00;;;3.30;;
25567;SDS011;13455;51.480;7.594;2023-05-10T03:45:29;4.95;;;3.28;;
25567;SDS011;13455;51.480;7.594;2023-05-10T03:47:56;4.57;;;3.20;;
25567;SDS011;13455;51.480;7.594;2023-05-10T03:50:22;5.30;;;3.30;;
25567;SDS011;13455;51.480;7.594;2023-05-10T03:52:48;6.80;;;3.33;;
25567;SDS011;13455;51.480;7.594;2023-05-10T03:55:15;5.30;;;3.25;;
25567;SDS011;13455;51.480;7.594;2023-05-10T03:57:42;6.20;;;2.90;;
25567;SDS011;13455;51.480;7.594;2023-05-10T04:00:10;4.55;;;2.90;;
25567;SDS011;13455;51.480;7.594;2023-05-10T04:02:37;5.28;;;2.50;;
25567;SDS011;13455;51.480;7.594;2023-05-10T04:05:05;4.10;;;2.38;;
25567;SDS011;13455;51.480;7.594;2023-05-10T04:07:31;3.60;;;2.70;;
25567;SDS011;13455;51.480;7.594;2023-05-10T04:09:56;6.50;;;3.43;;
25567;SDS011;13455;51.480;7.594;2023-05-10T04:12:22;6.55;;;4.50;;
25567;SDS011;13455;51.480;7.594;2023-05-10T04:14:48;8.83;;;6.97;;
25567;SDS011;13455;51.480;7.594;2023-05-10T04:17:13;11.03;;;7.80;;
25567;SDS011;13455;51.480;7.594;2023-05-10T04:19:39;9.97;;;7.70;;
25567;SDS011;13455;51.480;7.594;2023-05-10T04:22:05;13.13;;;9.05;;
25567;SDS011;13455;51.480;7.594;2023-05-10T04:24:30;13.27;;;8.80;;
25567;SDS011;13455;51.480;7.594;2023-05-10T04:26:56;12.07;;;9.60;;
25567;SDS011;13455;51.480;7.594;2023-05-10T04:29:21;13.23;;;9.53;;
25567;SDS011;13455;51.480;7.594;2023-05-10T04:31:47;14.93;;;10.53;;
25567;SDS011;13455;51.480;7.594;2023-05-10T04:34:13;14.27;;;10.30;;
25567;SDS011;13455;51.480;7.594;2023-05-10T04:36:39;15.33;;;11.10;;
25567;SDS011;13455;51.480;7.594;2023-05-10T04:39:04;16.33;;;11.03;;
25567;SDS011;13455;51.480;7.594;2023-05-10T04:41:30;15.73;;;10.23;;
25567;SDS011;13455;51.480;7.594;2023-05-10T04:43:56;15.45;;;10.70;;
25567;SDS011;13455;51.480;7.594;2023-05-10T04:46:21;14.77;;;10.40;;
25567;SDS011;13455;51.480;7.594;2023-05-10T04:48:47;16.23;;;10.30;;
25567;SDS011;13455;51.480;7.594;2023-05-10T04:51:13;14.27;;;9.23;;
25567;SDS011;13455;51.480;7.594;2023-05-10T04:53:38;16.63;;;10.47;;
25567;SDS011;13455;51.480;7.594;2023-05-10T04:56:04;13.07;;;9.13;;
25567;SDS011;13455;51.480;7.594;2023-05-10T04:58:30;13.48;;;8.60;;
25567;SDS011;13455;51.480;7.594;2023-05-10T05:00:56;11.50;;;8.00;;
25567;SDS011;13455;51.480;7.594;2023-05-10T05:03:21;10.97;;;7.70;;
25567;SDS011;13455;51.480;7.594;2023-05-10T05:05:47;10.97;;;7.43;;
25567;SDS011;13455;51.480;7.594;2023-05-10T05:08:13;11.77;;;7.87;;
25567;SDS011;13455;51.480;7.594;2023-05-10T05:10:38;11.57;;;8.23;;
25567;SDS011;13455;51.480;7.594;2023-05-10T05:13:04;14.40;;;9.20;;
25567;SDS011;13455;51.480;7.594;2023-05-10T05:15:30;15.23;;;9.90;;
25567;SDS011;13455;51.480;7.594;2023-05-10T05:17:56;14.63;;;10.50;;
25567;SDS011;13455;51.480;7.594;2023-05-10T05:20:22;15.57;;;10.20;;
25567;SDS011;13455;51.480;7.594;2023-05-10T05:22:47;15.47;;;10.97;;
25567;SDS011;13455;51.480;7.594;2023-05-10T05:25:13;15.93;;;11.63;;
25567;SDS011;13455;51.480;7.594;2023-05-10T05:27:40;18.88;;;12.50;;
25567;SDS011;13455;51.480;7.594;2023-05-10T05:30:06;18.48;;;12.73;;
25567;SDS011;13455;51.480;7.594;2023-05-10T05:32:32;20.33;;;13.82;;
25567;SDS011;13455;51.480;7.594;2023-05-10T05:34:57;23.20;;;15.48;;
25567;SDS011;13455;51.480;7.594;2023-05-10T05:37:23;23.20;;;16.20;;
25567;SDS011;13455;51.480;7.594;2023-05-10T05:39:49;27.08;;;16.98;;
25567;SDS011;13455;51.480;7.594;2023-05-10T05:42:15;23.63;;;16.92;;
25567;SDS011;13455;51.480;7.594;2023-05-10T05:44:42;26.90;;;18.95;;
25567;SDS011;13455;51.480;7.594;2023-05-10T05:47:08;28.93;;;19.90;;
25567;SDS011;13455;51.480;7.594;2023-05-10T05:49:34;28.50;;;19.40;;
25567;SDS011;13455;51.480;7.594;2023-05-10T05:52:00;29.13;;;20.80;;
25567;SDS011;13455;51.480;7.594;2023-05-10T05:54:26;33.42;;;21.23;;
25567;SDS011;13455;51.480;7.594;2023-05-10T05:56:56;29.98;;;20.92;;
25567;SDS011;13455;51.480;7.594;2023-05-10T05:59:22;30.33;;;20.50;;
25567;SDS011;13455;51.480;7.594;2023-05-10T06:01:48;32.33;;;21.60;;
25567;SDS011;13455;51.480;7.594;2023-05-10T06:04:14;29.88;;;20.70;;
25567;SDS011;13455;51.480;7.594;2023-05-10T06:06:40;34.60;;;22.10;;
25567;SDS011;13455;51.480;7.594;2023-05-10T06:09:05;34.13;;;22.20;;
25567;SDS011;13455;51.480;7.594;2023-05-10T06:11:31;31.97;;;21.30;;
25567;SDS011;13455;51.480;7.594;2023-05-10T06:14:00;33.65;;;22.40;;
25567;SDS011;13455;51.480;7.594;2023-05-10T06:16:26;33.28;;;22.33;;
25567;SDS011;13455;51.480;7.594;2023-05-10T06:18:52;32.45;;;22.83;;
25567;SDS011;13455;51.480;7.594;2023-05-10T06:21:18;34.97;;;23.73;;
25567;SDS011;13455;51.480;7.594;2023-05-10T06:23:44;35.13;;;24.30;;
25567;SDS011;13455;51.480;7.594;2023-05-10T06:26:09;34.50;;;23.57;;
25567;SDS011;13455;51.480;7.594;2023-05-10T06:28:35;35.90;;;23.50;;
25567;SDS011;13455;51.480;7.594;2023-05-10T06:31:03;35.22;;;23.75;;
25567;SDS011;13455;51.480;7.594;2023-05-10T06:33:29;33.55;;;23.15;;
25567;SDS011;13455;51.480;7.594;2023-05-10T06:35:55;38.23;;;23.93;;
25567;SDS011;13455;51.480;7.594;2023-05-10T06:38:20;36.43;;;24.87;;
25567;SDS011;13455;51.480;7.594;2023-05-10T06:40:46;38.57;;;24.00;;
25567;SDS011;13455;51.480;7.594;2023-05-10T06:43:12;37.27;;;24.20;;
25567;SDS011;13455;51.480;7.594;2023-05-10T06:45:37;37.60;;;24.70;;
25567;SDS011;13455;51.480;7.594;2023-05-10T06:48:03;37.40;;;25.13;;
25567;SDS011;13455;51.480;7.594;2023-05-10T06:50:29;37.38;;;24.48;;
25567;SDS011;13455;51.480;7.594;2023-05-10T06:52:55;36.33;;;23.88;;
25567;SDS011;13455;51.480;7.594;2023-05-10T06:55:21;37.57;;;24.40;;
25567;SDS011;13455;51.480;7.594;2023-05-10T06:57:47;36.92;;;24.00;;
25567;SDS011;13455;51.480;7.594;2023-05-10T07:00:13;42.83;;;25.57;;
25567;SDS011;13455;51.480;7.594;2023-05-10T07:02:39;38.20;;;24.98;;
25567;SDS011;13455;51.480;7.594;2023-05-10T07:05:05;39.67;;;25.13;;
25567;SDS011;13455;51.480;7.594;2023-05-10T07:07:31;35.88;;;24.40;;
25567;SDS011;13455;51.480;7.594;2023-05-10T07:09:57;39.60;;;24.40;;
25567;SDS011;13455;51.480;7.594;2023-05-10T07:12:23;37.22;;;25.05;;
25567;SDS011;13455;51.480;7.594;2023-05-10T07:14:49;37.30;;;25.35;;
25567;SDS011;13455;51.480;7.594;2023-05-10T07:17:14;36.72;;;25.45;;
25567;SDS011;13455;51.480;7.594;2023-05-10T07:19:40;36.93;;;24.70;;
25567;SDS011;13455;51.480;7.594;2023-05-10T07:22:06;38.70;;;26.13;;
25567;SDS011;13455;51.480;7.594;2023-05-10T07:24:32;39.17;;;26.30;;
25567;SDS011;13455;51.480;7.594;2023-05-10T07:26:58;40.00;;;26.15;;
25567;SDS011;13455;51.480;7.594;2023-05-10T07:29:24;39.72;;;26.40;;
25567;SDS011;13455;51.480;7.594;2023-05-10T07:31:49;39.20;;;26.17;;
25567;SDS011;13455;51.480;7.594;2023-05-10T07:34:17;39.10;;;25.98;;
25567;SDS011;13455;51.480;7.594;2023-05-10T07:36:42;38.90;;;26.58;;
25567;SDS011;13455;51.480;7.594;2023-05-10T07:39:08;41.90;;;27.05;;
25567;SDS011;13455;51.480;7.594;2023-05-10T07:41:34;35.72;;;24.77;;
25567;SDS011;13455;51.480;7.594;2023-05-10T07:44:02;39.95;;;25.60;;
25567;SDS011;13455;51.480;7.594;2023-05-10T07:46:28;36.97;;;24.83;;
25567;SDS011;13455;51.480;7.594;2023-05-10T07:48:55;34.83;;;24.60;;
25567;SDS011;13455;51.480;7.594;2023-05-10T07:51:21;31.45;;;23.02;;
25567;SDS011;13455;51.480;7.594;2023-05-10T07:53:47;31.83;;;22.70;;
25567;SDS011;13455;51.480;7.594;2023-05-10T07:56:29;29.23;;;21.50;;
25567;SDS011;13455;51.480;7.594;2023-05-10T07:58:56;24.17;;;18.85;;
25567;SDS011;13455;51.480;7.594;2023-05-10T08:01:23;28.87;;;19.83;;
25567;SDS011;13455;51.480;7.594;2023-05-10T08:03:49;25.02;;;18.05;;
25567;SDS011;13455;51.480;7.594;2023-05-10T08:06:16;25.48;;;18.40;;
25567;SDS011;13455;51.480;7.594;2023-05-10T08:08:43;25.40;;;18.35;;
25567;SDS011;13455;51.480;7.594;2023-05-10T08:11:10;21.60;;;15.20;;
25567;SDS011;13455;51.480;7.594;2023-05-10T08:13:36;20.93;;;14.60;;
25567;SDS011;13455;51.480;7.594;2023-05-10T08:16:02;20.30;;;14.23;;
25567;SDS011;13455;51.480;7.594;2023-05-10T08:18:27;20.50;;;14.43;;
25567;SDS011;13455;51.480;7.594;2023-05-10T08:20:53;19.83;;;13.90;;
25567;SDS011;13455;51.480;7.594;2023-05-10T08:23:19;23.63;;;16.02;;
25567;SDS011;13455;51.480;7.594;2023-05-10T08:25:44;22.17;;;15.80;;
25567;SDS011;13455;51.480;7.594;2023-05-10T08:28:10;22.00;;;16.13;;
25567;SDS011;13455;51.480;7.594;2023-05-10T08:30:35;25.90;;;16.57;;
25567;SDS011;13455;51.480;7.594;2023-05-10T08:33:01;23.25;;;16.70;;
25567;SDS011;13455;51.480;7.594;2023-05-10T08:35:27;24.07;;;16.57;;
25567;SDS011;13455;51.480;7.594;2023-05-10T08:37:52;23.73;;;16.90;;
25567;SDS011;13455;51.480;7.594;2023-05-10T08:40:19;26.05;;;17.83;;
25567;SDS011;13455;51.480;7.594;2023-05-10T08:42:47;25.00;;;17.92;;
25567;SDS011;13455;51.480;7.594;2023-05-10T08:45:20;26.85;;;19.23;;
25567;SDS011;13455;51.480;7.594;2023-05-10T08:47:49;22.85;;;16.60;;
25567;SDS011;13455;51.480;7.594;2023-05-10T08:50:17;22.37;;;15.13;;
25567;SDS011;13455;51.480;7.594;2023-05-10T08:52:45;21.88;;;14.70;;
25567;SDS011;13455;51.480;7.594;2023-05-10T08:55:13;14.70;;;10.27;;
25567;SDS011;13455;51.480;7.594;2023-05-10T08:57:40;12.23;;;7.60;;
25567;SDS011;13455;51.480;7.594;2023-05-10T09:00:06;10.53;;;7.80;;
25567;SDS011;13455;51.480;7.594;2023-05-10T09:02:33;12.73;;;9.02;;
25567;SDS011;13455;51.480;7.594;2023-05-10T09:04:59;12.73;;;8.80;;
25567;SDS011;13455;51.480;7.594;2023-05-10T09:07:25;14.17;;;9.50;;
25567;SDS011;13455;51.480;7.594;2023-05-10T09:09:51;15.50;;;10.18;;
25567;SDS011;13455;51.480;7.594;2023-05-10T09:12:18;14.07;;;9.43;;
25567;SDS011;13455;51.480;7.594;2023-05-10T09:14:43;13.80;;;9.30;;
25567;SDS011;13455;51.480;7.594;2023-05-10T09:17:10;14.55;;;9.45;;
25567;SDS011;13455;51.480;7.594;2023-05-10T09:19:36;15.07;;;8.80;;
25567;SDS011;13455;51.480;7.594;2023-05-10T09:22:02;12.35;;;8.48;;
25567;SDS011;13455;51.480;7.594;2023-05-10T09:24:29;13.95;;;9.20;;
25567;SDS011;13455;51.480;7.594;2023-05-10T09:26:54;12.75;;;8.52;;
25567;SDS011;13455;51.480;7.594;2023-05-10T09:29:22;12.68;;;8.13;;
25567;SDS011;13455;51.480;7.594;2023-05-10T09:31:48;14.98;;;8.45;;
25567;SDS011;13455;51.480;7.594;2023-05-10T09:34:29;14.43;;;8.30;;
25567;SDS011;13455;51.480;7.594;2023-05-10T09:36:57;14.52;;;9.40;;
25567;SDS011;13455;51.480;7.594;2023-05-10T09:39:31;16.80;;;10.32;;
25567;SDS011;13455;51.480;7.594;2023-05-10T09:42:01;17.60;;;11.63;;
25567;SDS011;13455;51.480;7.594;2023-05-10T09:44:32;19.50;;;12.57;;
25567;SDS011;13455;51.480;7.594;2023-05-10T09:46:58;16.97;;;11.90;;
25567;SDS011;13455;51.480;7.594;2023-05-10T09:49:24;17.23;;;10.95;;
25567;SDS011;13455;51.480;7.594;2023-05-10T09:52:06;15.57;;;10.70;;
25567;SDS011;13455;51.480;7.594;2023-05-10T09:54:32;17.63;;;11.40;;
25567;SDS011;13455;51.480;7.594;2023-05-10T09:56:59;16.93;;;10.80;;
25567;SDS011;13455;51.480;7.594;2023-05-10T09:59:26;17.80;;;10.80;;
25567;SDS011;13455;51.480;7.594;2023-05-10T10:01:53;15.77;;;11.02;;
25567;SDS011;13455;51.480;7.594;2023-05-10T10:04:21;16.77;;;11.35;;
25567;SDS011;13455;51.480;7.594;2023-05-10T10:06:47;17.30;;;11.63;;
25567;SDS011;13455;51.480;7.594;2023-05-10T10:09:28;18.33;;;11.63;;
25567;SDS011;13455;51.480;7.594;2023-05-10T10:11:54;13.30;;;9.60;;
25567;SDS011;13455;51.480;7.594;2023-05-10T10:14:21;12.32;;;8.23;;
25567;SDS011;13455;51.480;7.594;2023-05-10T10:16:49;10.95;;;7.63;;
25567;SDS011;13455;51.480;7.594;2023-05-10T10:19:15;10.10;;;6.50;;
25567;SDS011;13455;51.480;7.594;2023-05-10T10:21:41;8.30;;;5.30;;
25567;SDS011;13455;51.480;7.594;2023-05-10T10:24:07;9.05;;;5.07;;
25567;SDS011;13455;51.480;7.594;2023-05-10T10:26:35;10.03;;;5.40;;
25567;SDS011;13455;51.480;7.594;2023-05-10T10:29:21;7.63;;;4.88;;
25567;SDS011;13455;51.480;7.594;2023-05-10T10:34:48;8.15;;;5.40;;
25567;SDS011;13455;51.480;7.594;2023-05-10T10:37:15;8.93;;;6.20;;
25567;SDS011;13455;51.480;7.594;2023-05-10T10:39:40;7.70;;;5.70;;
25567;SDS011;13455;51.480;7.594;2023-05-10T10:42:06;8.38;;;5.80;;
25567;SDS011;13455;51.480;7.594;2023-05-10T10:49:49;7.88;;;5.65;;
25567;SDS011;13455;51.480;7.594;2023-05-10T10:52:35;8.65;;;5.85;;
25567;SDS011;13455;51.480;7.594;2023-05-10T10:55:13;9.25;;;6.13;;
25567;SDS011;13455;51.480;7.594;2023-05-10T11:00:19;11.13;;;6.30;;
25567;SDS011;13455;51.480;7.594;2023-05-10T11:02:46;9.77;;;6.30;;
25567;SDS011;13455;51.480;7.594;2023-05-10T11:08:46;10.13;;;6.15;;
25567;SDS011;13455;51.480;7.594;2023-05-10T11:15:55;12.73;;;7.00;;
25567;SDS011;13455;51.480;7.594;2023-05-10T11:18:25;11.82;;;7.88;;
25567;SDS011;13455;51.480;7.594;2023-05-10T11:21:00;13.85;;;8.10;;
25567;SDS011;13455;51.480;7.594;2023-05-10T11:26:11;19.35;;;11.85;;
25567;SDS011;13455;51.480;7.594;2023-05-10T11:28:49;19.23;;;11.57;;
25567;SDS011;13455;51.480;7.594;2023-05-10T11:31:15;20.42;;;11.80;;
25567;SDS011;13455;51.480;7.594;2023-05-10T11:33:46;18.38;;;12.05;;
25567;SDS011;13455;51.480;7.594;2023-05-10T11:36:16;17.60;;;11.77;;
25567;SDS011;13455;51.480;7.594;2023-05-10T11:38:47;18.13;;;11.15;;
25567;SDS011;13455;51.480;7.594;2023-05-10T11:41:13;17.05;;;10.55;;
25567;SDS011;13455;51.480;7.594;2023-05-10T11:43:40;16.80;;;10.75;;
25567;SDS011;13455;51.480;7.594;2023-05-10T11:46:10;16.92;;;10.13;;
25567;SDS011;13455;51.480;7.594;2023-05-10T11:48:38;17.17;;;10.23;;
25567;SDS011;13455;51.480;7.594;2023-05-10T11:51:05;15.38;;;9.63;;
25567;SDS011;13455;51.480;7.594;2023-05-10T11:53:32;17.63;;;9.30;;
25567;SDS011;13455;51.480;7.594;2023-05-10T11:56:08;15.10;;;9.10;;
25567;SDS011;13455;51.480;7.594;2023-05-10T11:58:35;14.45;;;8.52;;
25567;SDS011;13455;51.480;7.594;2023-05-10T12:01:04;11.90;;;7.90;;
25567;SDS011;13455;51.480;7.594;2023-05-10T12:03:31;11.13;;;7.15;;
25567;SDS011;13455;51.480;7.594;2023-05-10T12:05:58;11.52;;;7.07;;
25567;SDS011;13455;51.480;7.594;2023-05-10T12:08:25;11.70;;;7.10;;
25567;SDS011;13455;51.480;7.594;2023-05-10T12:10:53;10.77;;;7.03;;
25567;SDS011;13455;51.480;7.594;2023-05-10T12:13:19;14.00;;;8.10;;
25567;SDS011;13455;51.480;7.594;2023-05-10T12:15:46;12.23;;;8.05;;
25567;SDS011;13455;51.480;7.594;2023-05-10T12:18:12;13.45;;;9.68;;
25567;SDS011;13455;51.480;7.594;2023-05-10T12:20:39;13.35;;;9.55;;
25567;SDS011;13455;51.480;7.594;2023-05-10T12:23:05;16.27;;;10.23;;
25567;SDS011;13455;51.480;7.594;2023-05-10T12:25:34;14.60;;;11.13;;
25567;SDS011;13455;51.480;7.594;2023-05-10T12:28:05;16.47;;;10.37;;
25567;SDS011;13455;51.480;7.594;2023-05-10T12:30:33;15.67;;;10.93;;
25567;SDS011;13455;51.480;7.594;2023-05-10T12:33:07;16.23;;;10.90;;
25567;SDS011;13455;51.480;7.594;2023-05-10T12:35:49;14.25;;;10.23;;
25567;SDS011;13455;51.480;7.594;2023-05-10T12:38:27;14.02;;;9.55;;
25567;SDS011;13455;51.480;7.594;2023-05-10T12:40:58;14.52;;;9.80;;
25567;SDS011;13455;51.480;7.594;2023-05-10T12:43:25;12.88;;;9.32;;
25567;SDS011;13455;51.480;7.594;2023-05-10T12:45:51;13.82;;;9.23;;
25567;SDS011;13455;51.480;7.594;2023-05-10T12:48:17;13.37;;;9.23;;
25567;SDS011;13455;51.480;7.594;2023-05-10T12:50:42;11.37;;;8.67;;
25567;SDS011;13455;51.480;7.594;2023-05-10T12:53:08;12.80;;;8.93;;
25567;SDS011;13455;51.480;7.594;2023-05-10T12:55:34;11.60;;;8.37;;
25567;SDS011;13455;51.480;7.594;2023-05-10T12:58:00;11.48;;;8.00;;
25567;SDS011;13455;51.480;7.594;2023-05-10T13:00:25;11.05;;;7.30;;
25567;SDS011;13455;51.480;7.594;2023-05-10T13:02:51;11.00;;;7.80;;
25567;SDS011;13455;51.480;7.594;2023-05-10T13:05:17;11.82;;;7.40;;
25567;SDS011;13455;51.480;7.594;2023-05-10T13:07:43;9.13;;;6.63;;
25567;SDS011;13455;51.480;7.594;2023-05-10T13:10:09;9.97;;;7.00;;
25567;SDS011;13455;51.480;7.594;2023-05-10T13:12:35;11.90;;;7.38;;
25567;SDS011;13455;51.480;7.594;2023-05-10T13:15:01;11.57;;;7.68;;
25567;SDS011;13455;51.480;7.594;2023-05-10T13:17:28;11.50;;;8.00;;
25567;SDS011;13455;51.480;7.594;2023-05-10T13:19:53;11.20;;;7.68;;
25567;SDS011;13455;51.480;7.594;2023-05-10T13:22:19;10.20;;;7.57;;
25567;SDS011;13455;51.480;7.594;2023-05-10T13:24:45;9.82;;;7.35;;
25567;SDS011;13455;51.480;7.594;2023-05-10T13:27:10;9.93;;;6.90;;
25567;SDS011;13455;51.480;7.594;2023-05-10T13:29:36;10.68;;;7.00;;
25567;SDS011;13455;51.480;7.594;2023-05-10T13:32:01;10.57;;;6.90;;
25567;SDS011;13455;51.480;7.594;2023-05-10T13:34:27;9.98;;;6.43;;
25567;SDS011;13455;51.480;7.594;2023-05-10T13:36:53;9.73;;;6.43;;
25567;SDS011;13455;51.480;7.594;2023-05-10T13:39:20;9.75;;;6.25;;
25567;SDS011;13455;51.480;7.594;2023-05-10T13:41:46;9.07;;;6.38;;
25567;SDS011;13455;51.480;7.594;2023-05-10T13:44:12;9.07;;;6.28;;
25567;SDS011;13455;51.480;7.594;2023-05-10T13:46:40;8.75;;;5.63;;
25567;SDS011;13455;51.480;7.594;2023-05-10T13:49:07;9.63;;;5.90;;
25567;SDS011;13455;51.480;7.594;2023-05-10T13:51:33;8.43;;;5.53;;
25567;SDS011;13455;51.480;7.594;2023-05-10T13:53:59;8.63;;;6.32;;
25567;SDS011;13455;51.480;7.594;2023-05-10T13:56:25;9.77;;;6.20;;
25567;SDS011;13455;51.480;7.594;2023-05-10T13:58:52;9.05;;;6.32;;
25567;SDS011;13455;51.480;7.594;2023-05-10T14:01:18;7.75;;;5.97;;
25567;SDS011;13455;51.480;7.594;2023-05-10T14:03:44;10.23;;;6.07;;
25567;SDS011;13455;51.480;7.594;2023-05-10T14:06:09;8.00;;;6.07;;
25567;SDS011;13455;51.480;7.594;2023-05-10T14:08:35;10.77;;;6.47;;
25567;SDS011;13455;51.480;7.594;2023-05-10T14:11:02;9.18;;;5.97;;
25567;SDS011;13455;51.480;7.594;2023-05-10T14:13:27;7.75;;;5.70;;
25567;SDS011;13455;51.480;7.594;2023-05-10T14:15:53;8.50;;;5.47;;
25567;SDS011;13455;51.480;7.594;2023-05-10T14:18:20;9.23;;;5.95;;
25567;SDS011;13455;51.480;7.594;2023-05-10T14:20:46;7.55;;;5.63;;
25567;SDS011;13455;51.480;7.594;2023-05-10T14:23:12;6.35;;;4.82;;
25567;SDS011;13455;51.480;7.594;2023-05-10T14:25:39;7.03;;;5.70;;
25567;SDS011;13455;51.480;7.594;2023-05-10T14:28:05;7.72;;;5.47;;
25567;SDS011;13455;51.480;7.594;2023-05-10T14:30:31;8.70;;;5.57;;
25567;SDS011;13455;51.480;7.594;2023-05-10T14:32:59;7.00;;;5.70;;
25567;SDS011;13455;51.480;7.594;2023-05-10T14:35:26;9.02;;;6.20;;
25567;SDS011;13455;51.480;7.594;2023-05-10T14:37:52;8.85;;;6.20;;
25567;SDS011;13455;51.480;7.594;2023-05-10T14:40:18;8.63;;;6.77;;
25567;SDS011;13455;51.480;7.594;2023-05-10T14:42:44;8.73;;;6.78;;
25567;SDS011;13455;51.480;7.594;2023-05-10T14:45:10;7.70;;;6.40;;
25567;SDS011;13455;51.480;7.594;2023-05-10T14:47:37;10.20;;;7.20;;
25567;SDS011;13455;51.480;7.594;2023-05-10T14:50:03;9.43;;;6.38;;
25567;SDS011;13455;51.480;7.594;2023-05-10T14:52:29;9.40;;;6.40;;
25567;SDS011;13455;51.480;7.594;2023-05-10T14:54:55;8.45;;;6.93;;
25567;SDS011;13455;51.480;7.594;2023-05-10T14:57:20;10.38;;;6.72;;
25567;SDS011;13455;51.480;7.594;2023-05-10T14:59:46;8.40;;;6.20;;
25567;SDS011;13455;51.480;7.594;2023-05-10T15:02:12;8.23;;;6.00;;
25567;SDS011;13455;51.480;7.594;2023-05-10T15:04:38;6.77;;;5.30;;
25567;SDS011;13455;51.480;7.594;2023-05-10T15:07:04;7.20;;;5.23;;
25567;SDS011;13455;51.480;7.594;2023-05-10T15:09:30;6.55;;;4.60;;
25567;SDS011;13455;51.480;7.594;2023-05-10T15:11:56;6.05;;;3.50;;
25567;SDS011;13455;51.480;7.594;2023-05-10T15:14:22;4.10;;;2.90;;
25567;SDS011;13455;51.480;7.594;2023-05-10T15:16:48;3.72;;;2.75;;
25567;SDS011;13455;51.480;7.594;2023-05-10T15:19:13;4.63;;;2.70;;